Meramec River (Missouri), Cook Station (07010350)

StateMissouriLatestHigh (247 cfs)
RiverMeramec RiverRatingObservedEstimated
Updated2020-02-25 14:00 (1 hour ago)Flood - The river is flooding. Obstacles can be treacherous or deadly. The river should be avoided at this stage for casual trips and definitely for the inexperienced. Trips should be attempted only with protective gear and equipment.Flood(none)602
Discharge247 cfs (median: 87 cfs)High - The river is high and potentially dangerous, especially for the young and / or inexperienced. Normal stream obstacles are sometimes difficult to navigate. Extended distances can be attempted, but canoe travel may not be advisable.High(none)243
Height3.47 feetGood - Conditions are ideal for a canoe or kayak. Boats typically will drag on fewer than one-quarter of riffles, if at all, and portages are unnecessary or rare. Normal float lengths can be attempted without a problem.Good(none)121
TrendFalling (rising over 24 hours)Low - River is low but can still be floated. Some riffles are okay but most come with significant dragging and might need a portage. Float lengths should be reduced to accommodate low flow, dragging, and portages.Low(none)51
USGSExternal icon USGS Site (External icon Google Maps)Poor - River is too low to float comfortably. Most or all riffles will drag or must be portaged and some obstacles (such as slick shelf rock) cause undue problems. Avoid the river at this stage for casual paddling trips.Poor(none)24

Trending Data

Plot Image

Trips for Meramec River (Missouri), Cook Station (07010350)

DateStartEndDistanceConditionDischargeHeightFishingDetails

A total of 0 rows are displayed.

Condition Descriptions

Fishing Conditions

Fish Species

Notes

Classic Trip List

The classic River Trips application is still available for use. It is updated with the new system using a data retrofit. It is no longer maintained. The original River Trips application is no longer updated (as of 1 Dec 2016) but can be checked for errors or for the condition of the data before it was converted to the new system.

Gauge Data Table

ObservationHeightDischargeMaximum
Discharge
Minimum
Discharge
Mean
Discharge
P05P10P20P25P50
(Median)
P75P80P90P95
2020-02-25 14:00 3.47 247 4280 (2018) 28 (1977) 316 28 31 35 49 87 260 334 495 2880
2020-02-25 13:00 3.48 249 4280 (2018) 28 (1977) 316 28 31 35 49 87 260 334 495 2880
2020-02-25 12:00 3.48 249 4280 (2018) 28 (1977) 316 28 31 35 49 87 260 334 495 2880
2020-02-25 11:00 3.49 252 4280 (2018) 28 (1977) 316 28 31 35 49 87 260 334 495 2880
2020-02-25 10:00 3.50 254 4280 (2018) 28 (1977) 316 28 31 35 49 87 260 334 495 2880
2020-02-25 09:00 3.51 256 4280 (2018) 28 (1977) 316 28 31 35 49 87 260 334 495 2880
2020-02-25 08:00 3.52 258 4280 (2018) 28 (1977) 316 28 31 35 49 87 260 334 495 2880
2020-02-25 07:00 3.53 260 4280 (2018) 28 (1977) 316 28 31 35 49 87 260 334 495 2880
2020-02-25 06:00 3.54 262 4280 (2018) 28 (1977) 316 28 31 35 49 87 260 334 495 2880
2020-02-25 05:00 3.55 264 4280 (2018) 28 (1977) 316 28 31 35 49 87 260 334 495 2880
2020-02-25 04:00 3.55 264 4280 (2018) 28 (1977) 316 28 31 35 49 87 260 334 495 2880
2020-02-25 03:00 3.55 264 4280 (2018) 28 (1977) 316 28 31 35 49 87 260 334 495 2880
2020-02-25 02:00 3.55 264 4280 (2018) 28 (1977) 316 28 31 35 49 87 260 334 495 2880
2020-02-25 01:00 3.55 264 4280 (2018) 28 (1977) 316 28 31 35 49 87 260 334 495 2880
2020-02-25 00:00 3.54 262 4280 (2018) 28 (1977) 316 28 31 35 49 87 260 334 495 2880
2020-02-24 23:00 3.52 258 5500 (2018) 27 (1977) 362 27 31 35 51 82 293 316 600 3560
2020-02-24 22:00 3.50 254 5500 (2018) 27 (1977) 362 27 31 35 51 82 293 316 600 3560
2020-02-24 21:00 3.46 245 5500 (2018) 27 (1977) 362 27 31 35 51 82 293 316 600 3560
2020-02-24 20:00 3.41 235 5500 (2018) 27 (1977) 362 27 31 35 51 82 293 316 600 3560
2020-02-24 19:00 3.36 225 5500 (2018) 27 (1977) 362 27 31 35 51 82 293 316 600 3560
2020-02-24 18:00 3.28 210 5500 (2018) 27 (1977) 362 27 31 35 51 82 293 316 600 3560
2020-02-24 17:00 3.20 196 5500 (2018) 27 (1977) 362 27 31 35 51 82 293 316 600 3560
2020-02-24 16:00 3.13 184 5500 (2018) 27 (1977) 362 27 31 35 51 82 293 316 600 3560
2020-02-24 15:00 3.09 177 5500 (2018) 27 (1977) 362 27 31 35 51 82 293 316 600 3560
2020-02-24 14:00 3.04 169 5500 (2018) 27 (1977) 362 27 31 35 51 82 293 316 600 3560
2020-02-24 13:00 3.01 164 5500 (2018) 27 (1977) 362 27 31 35 51 82 293 316 600 3560
2020-02-24 12:00 2.99 161 5500 (2018) 27 (1977) 362 27 31 35 51 82 293 316 600 3560
2020-02-24 11:00 2.99 161 5500 (2018) 27 (1977) 362 27 31 35 51 82 293 316 600 3560
2020-02-24 10:00 2.99 161 5500 (2018) 27 (1977) 362 27 31 35 51 82 293 316 600 3560
2020-02-24 09:00 2.98 159 5500 (2018) 27 (1977) 362 27 31 35 51 82 293 316 600 3560
2020-02-24 08:00 2.96 156 5500 (2018) 27 (1977) 362 27 31 35 51 82 293 316 600 3560
2020-02-24 07:00 2.93 152 5500 (2018) 27 (1977) 362 27 31 35 51 82 293 316 600 3560
2020-02-24 06:00 2.89 146 5500 (2018) 27 (1977) 362 27 31 35 51 82 293 316 600 3560
2020-02-24 05:00 2.85 140 5500 (2018) 27 (1977) 362 27 31 35 51 82 293 316 600 3560
2020-02-24 04:00 2.82 136 5500 (2018) 27 (1977) 362 27 31 35 51 82 293 316 600 3560
2020-02-24 03:00 2.78 130 5500 (2018) 27 (1977) 362 27 31 35 51 82 293 316 600 3560
2020-02-24 02:00 2.75 126 5500 (2018) 27 (1977) 362 27 31 35 51 82 293 316 600 3560
2020-02-24 01:00 2.74 125 5500 (2018) 27 (1977) 362 27 31 35 51 82 293 316 600 3560
2020-02-24 00:00 2.73 123 5500 (2018) 27 (1977) 362 27 31 35 51 82 293 316 600 3560
2020-02-23 23:00 2.73 123 2600 (1975) 24 (1977) 292 25 33 34 38 87 251 389 754 2270
2020-02-23 22:00 2.72 122 2600 (1975) 24 (1977) 292 25 33 34 38 87 251 389 754 2270
2020-02-23 21:00 2.72 122 2600 (1975) 24 (1977) 292 25 33 34 38 87 251 389 754 2270
2020-02-23 20:00 2.73 123 2600 (1975) 24 (1977) 292 25 33 34 38 87 251 389 754 2270
2020-02-23 19:00 2.73 123 2600 (1975) 24 (1977) 292 25 33 34 38 87 251 389 754 2270
2020-02-23 18:00 2.73 123 2600 (1975) 24 (1977) 292 25 33 34 38 87 251 389 754 2270
2020-02-23 17:00 2.73 123 2600 (1975) 24 (1977) 292 25 33 34 38 87 251 389 754 2270
2020-02-23 16:00 2.73 123 2600 (1975) 24 (1977) 292 25 33 34 38 87 251 389 754 2270
2020-02-23 15:00 2.73 123 2600 (1975) 24 (1977) 292 25 33 34 38 87 251 389 754 2270
2020-02-23 14:00 2.74 125 2600 (1975) 24 (1977) 292 25 33 34 38 87 251 389 754 2270
2020-02-23 13:00 2.74 125 2600 (1975) 24 (1977) 292 25 33 34 38 87 251 389 754 2270
2020-02-23 12:00 2.74 125 2600 (1975) 24 (1977) 292 25 33 34 38 87 251 389 754 2270
2020-02-23 11:00 2.74 125 2600 (1975) 24 (1977) 292 25 33 34 38 87 251 389 754 2270
2020-02-23 10:00 2.74 125 2600 (1975) 24 (1977) 292 25 33 34 38 87 251 389 754 2270
2020-02-23 09:00 2.75 126 2600 (1975) 24 (1977) 292 25 33 34 38 87 251 389 754 2270
2020-02-23 08:00 2.75 126 2600 (1975) 24 (1977) 292 25 33 34 38 87 251 389 754 2270
2020-02-23 07:00 2.75 126 2600 (1975) 24 (1977) 292 25 33 34 38 87 251 389 754 2270
2020-02-23 06:00 2.75 126 2600 (1975) 24 (1977) 292 25 33 34 38 87 251 389 754 2270
2020-02-23 05:00 2.75 126 2600 (1975) 24 (1977) 292 25 33 34 38 87 251 389 754 2270
2020-02-23 04:00 2.76 127 2600 (1975) 24 (1977) 292 25 33 34 38 87 251 389 754 2270
2020-02-23 03:00 2.76 127 2600 (1975) 24 (1977) 292 25 33 34 38 87 251 389 754 2270
2020-02-23 02:00 2.76 127 2600 (1975) 24 (1977) 292 25 33 34 38 87 251 389 754 2270
2020-02-23 01:00 2.76 127 2600 (1975) 24 (1977) 292 25 33 34 38 87 251 389 754 2270
2020-02-23 00:00 2.77 129 2600 (1975) 24 (1977) 292 25 33 34 38 87 251 389 754 2270
2020-02-22 23:00 2.77 129 1080 (1979) 22 (1977) 222 24 32 36 38 93 226 464 829 1020
2020-02-22 22:00 2.77 129 1080 (1979) 22 (1977) 222 24 32 36 38 93 226 464 829 1020
2020-02-22 21:00 2.77 129 1080 (1979) 22 (1977) 222 24 32 36 38 93 226 464 829 1020
2020-02-22 20:00 2.78 130 1080 (1979) 22 (1977) 222 24 32 36 38 93 226 464 829 1020
2020-02-22 19:00 2.78 130 1080 (1979) 22 (1977) 222 24 32 36 38 93 226 464 829 1020
2020-02-22 18:00 2.78 130 1080 (1979) 22 (1977) 222 24 32 36 38 93 226 464 829 1020
2020-02-22 17:00 2.79 131 1080 (1979) 22 (1977) 222 24 32 36 38 93 226 464 829 1020
2020-02-22 16:00 2.79 131 1080 (1979) 22 (1977) 222 24 32 36 38 93 226 464 829 1020
2020-02-22 15:00 2.79 131 1080 (1979) 22 (1977) 222 24 32 36 38 93 226 464 829 1020
2020-02-22 14:00 2.79 131 1080 (1979) 22 (1977) 222 24 32 36 38 93 226 464 829 1020
2020-02-22 13:00 2.79 131 1080 (1979) 22 (1977) 222 24 32 36 38 93 226 464 829 1020
2020-02-22 12:00 2.80 133 1080 (1979) 22 (1977) 222 24 32 36 38 93 226 464 829 1020
2020-02-22 11:00 2.80 133 1080 (1979) 22 (1977) 222 24 32 36 38 93 226 464 829 1020
2020-02-22 10:00 2.80 133 1080 (1979) 22 (1977) 222 24 32 36 38 93 226 464 829 1020
2020-02-22 09:00 2.80 133 1080 (1979) 22 (1977) 222 24 32 36 38 93 226 464 829 1020
2020-02-22 08:00 2.80 133 1080 (1979) 22 (1977) 222 24 32 36 38 93 226 464 829 1020
2020-02-22 07:00 2.80 133 1080 (1979) 22 (1977) 222 24 32 36 38 93 226 464 829 1020
2020-02-22 06:00 2.80 133 1080 (1979) 22 (1977) 222 24 32 36 38 93 226 464 829 1020
2020-02-22 05:00 2.81 134 1080 (1979) 22 (1977) 222 24 32 36 38 93 226 464 829 1020
2020-02-22 04:00 2.81 134 1080 (1979) 22 (1977) 222 24 32 36 38 93 226 464 829 1020
2020-02-22 03:00 2.81 134 1080 (1979) 22 (1977) 222 24 32 36 38 93 226 464 829 1020
2020-02-22 02:00 2.82 136 1080 (1979) 22 (1977) 222 24 32 36 38 93 226 464 829 1020
2020-02-22 01:00 2.82 136 1080 (1979) 22 (1977) 222 24 32 36 38 93 226 464 829 1020
2020-02-22 00:00 2.82 136 1080 (1979) 22 (1977) 222 24 32 36 38 93 226 464 829 1020
2020-02-21 23:00 2.82 136 853 (2018) 22 (1977) 141 24 32 37 39 84 121 126 451 800
2020-02-21 22:00 2.83 137 853 (2018) 22 (1977) 141 24 32 37 39 84 121 126 451 800
2020-02-21 21:00 2.83 137 853 (2018) 22 (1977) 141 24 32 37 39 84 121 126 451 800
2020-02-21 20:00 2.84 138 853 (2018) 22 (1977) 141 24 32 37 39 84 121 126 451 800
2020-02-21 19:00 2.84 138 853 (2018) 22 (1977) 141 24 32 37 39 84 121 126 451 800
2020-02-21 18:00 2.84 138 853 (2018) 22 (1977) 141 24 32 37 39 84 121 126 451 800
2020-02-21 17:00 2.85 140 853 (2018) 22 (1977) 141 24 32 37 39 84 121 126 451 800
2020-02-21 16:00 2.85 140 853 (2018) 22 (1977) 141 24 32 37 39 84 121 126 451 800
2020-02-21 15:00 2.85 140 853 (2018) 22 (1977) 141 24 32 37 39 84 121 126 451 800
2020-02-21 14:00 2.86 141 853 (2018) 22 (1977) 141 24 32 37 39 84 121 126 451 800
2020-02-21 13:00 2.86 141 853 (2018) 22 (1977) 141 24 32 37 39 84 121 126 451 800
2020-02-21 12:00 2.86 141 853 (2018) 22 (1977) 141 24 32 37 39 84 121 126 451 800
2020-02-21 11:00 2.87 143 853 (2018) 22 (1977) 141 24 32 37 39 84 121 126 451 800
2020-02-21 10:00 2.87 143 853 (2018) 22 (1977) 141 24 32 37 39 84 121 126 451 800
2020-02-21 09:00 2.87 143 853 (2018) 22 (1977) 141 24 32 37 39 84 121 126 451 800
2020-02-21 08:00 2.88 144 853 (2018) 22 (1977) 141 24 32 37 39 84 121 126 451 800
2020-02-21 07:00 2.88 144 853 (2018) 22 (1977) 141 24 32 37 39 84 121 126 451 800
2020-02-21 06:00 2.89 146 853 (2018) 22 (1977) 141 24 32 37 39 84 121 126 451 800
2020-02-21 05:00 2.89 146 853 (2018) 22 (1977) 141 24 32 37 39 84 121 126 451 800
2020-02-21 04:00 2.90 147 853 (2018) 22 (1977) 141 24 32 37 39 84 121 126 451 800
2020-02-21 03:00 2.90 147 853 (2018) 22 (1977) 141 24 32 37 39 84 121 126 451 800
2020-02-21 02:00 2.90 147 853 (2018) 22 (1977) 141 24 32 37 39 84 121 126 451 800
2020-02-21 01:00 2.91 149 853 (2018) 22 (1977) 141 24 32 37 39 84 121 126 451 800
2020-02-21 00:00 2.91 149 853 (2018) 22 (1977) 141 24 32 37 39 84 121 126 451 800
2020-02-20 23:00 2.92 150 459 (1974) 22 (1977) 99 23 28 35 38 69 103 113 214 453
2020-02-20 22:00 2.92 150 459 (1974) 22 (1977) 99 23 28 35 38 69 103 113 214 453
2020-02-20 21:00 2.93 152 459 (1974) 22 (1977) 99 23 28 35 38 69 103 113 214 453
2020-02-20 20:00 2.93 152 459 (1974) 22 (1977) 99 23 28 35 38 69 103 113 214 453
2020-02-20 19:00 2.94 153 459 (1974) 22 (1977) 99 23 28 35 38 69 103 113 214 453
2020-02-20 18:00 2.94 153 459 (1974) 22 (1977) 99 23 28 35 38 69 103 113 214 453
2020-02-20 17:00 2.95 155 459 (1974) 22 (1977) 99 23 28 35 38 69 103 113 214 453
2020-02-20 16:00 2.96 156 459 (1974) 22 (1977) 99 23 28 35 38 69 103 113 214 453
2020-02-20 15:00 2.96 156 459 (1974) 22 (1977) 99 23 28 35 38 69 103 113 214 453
2020-02-20 14:00 2.96 156 459 (1974) 22 (1977) 99 23 28 35 38 69 103 113 214 453
2020-02-20 13:00 2.96 156 459 (1974) 22 (1977) 99 23 28 35 38 69 103 113 214 453
2020-02-20 12:00 2.97 158 459 (1974) 22 (1977) 99 23 28 35 38 69 103 113 214 453
2020-02-20 11:00 2.97 158 459 (1974) 22 (1977) 99 23 28 35 38 69 103 113 214 453
2020-02-20 10:00 2.98 159 459 (1974) 22 (1977) 99 23 28 35 38 69 103 113 214 453
2020-02-20 09:00 2.98 159 459 (1974) 22 (1977) 99 23 28 35 38 69 103 113 214 453
2020-02-20 08:00 2.98 159 459 (1974) 22 (1977) 99 23 28 35 38 69 103 113 214 453
2020-02-20 07:00 2.99 161 459 (1974) 22 (1977) 99 23 28 35 38 69 103 113 214 453
2020-02-20 06:00 2.99 161 459 (1974) 22 (1977) 99 23 28 35 38 69 103 113 214 453
2020-02-20 05:00 3.00 162 459 (1974) 22 (1977) 99 23 28 35 38 69 103 113 214 453
2020-02-20 04:00 3.00 162 459 (1974) 22 (1977) 99 23 28 35 38 69 103 113 214 453
2020-02-20 03:00 3.01 164 459 (1974) 22 (1977) 99 23 28 35 38 69 103 113 214 453
2020-02-20 02:00 3.01 164 459 (1974) 22 (1977) 99 23 28 35 38 69 103 113 214 453
2020-02-20 01:00 3.02 165 459 (1974) 22 (1977) 99 23 28 35 38 69 103 113 214 453
2020-02-20 00:00 3.02 165 459 (1974) 22 (1977) 99 23 28 35 38 69 103 113 214 453
2020-02-19 23:00 3.02 165 800 (1974) 22 (1977) 107 23 27 35 36 72 120 125 167 571
2020-02-19 22:00 3.03 167 800 (1974) 22 (1977) 107 23 27 35 36 72 120 125 167 571
2020-02-19 21:00 3.04 169 800 (1974) 22 (1977) 107 23 27 35 36 72 120 125 167 571
2020-02-19 20:00 3.04 169 800 (1974) 22 (1977) 107 23 27 35 36 72 120 125 167 571
2020-02-19 19:00 3.04 169 800 (1974) 22 (1977) 107 23 27 35 36 72 120 125 167 571
2020-02-19 18:00 3.05 170 800 (1974) 22 (1977) 107 23 27 35 36 72 120 125 167 571
2020-02-19 17:00 3.05 170 800 (1974) 22 (1977) 107 23 27 35 36 72 120 125 167 571
2020-02-19 16:00 3.05 170 800 (1974) 22 (1977) 107 23 27 35 36 72 120 125 167 571
2020-02-19 15:00 3.06 172 800 (1974) 22 (1977) 107 23 27 35 36 72 120 125 167 571
2020-02-19 14:00 3.07 174 800 (1974) 22 (1977) 107 23 27 35 36 72 120 125 167 571
2020-02-19 13:00 3.08 175 800 (1974) 22 (1977) 107 23 27 35 36 72 120 125 167 571
2020-02-19 12:00 3.08 175 800 (1974) 22 (1977) 107 23 27 35 36 72 120 125 167 571
2020-02-19 11:00 3.08 175 800 (1974) 22 (1977) 107 23 27 35 36 72 120 125 167 571
2020-02-19 10:00 3.09 177 800 (1974) 22 (1977) 107 23 27 35 36 72 120 125 167 571
2020-02-19 09:00 3.09 177 800 (1974) 22 (1977) 107 23 27 35 36 72 120 125 167 571
2020-02-19 08:00 3.10 178 800 (1974) 22 (1977) 107 23 27 35 36 72 120 125 167 571
2020-02-19 07:00 3.10 178 800 (1974) 22 (1977) 107 23 27 35 36 72 120 125 167 571
2020-02-19 06:00 3.11 180 800 (1974) 22 (1977) 107 23 27 35 36 72 120 125 167 571
2020-02-19 05:00 3.11 180 800 (1974) 22 (1977) 107 23 27 35 36 72 120 125 167 571
2020-02-19 04:00 3.12 182 800 (1974) 22 (1977) 107 23 27 35 36 72 120 125 167 571
2020-02-19 03:00 3.13 184 800 (1974) 22 (1977) 107 23 27 35 36 72 120 125 167 571
2020-02-19 02:00 3.13 184 800 (1974) 22 (1977) 107 23 27 35 36 72 120 125 167 571
2020-02-19 01:00 3.14 185 800 (1974) 22 (1977) 107 23 27 35 36 72 120 125 167 571
2020-02-19 00:00 3.14 185 800 (1974) 22 (1977) 107 23 27 35 36 72 120 125 167 571
2020-02-18 23:00 3.15 187 247 (2019) 23 (1977) 87 23 26 35 37 75 135 137 155 219
2020-02-18 22:00 3.16 189 247 (2019) 23 (1977) 87 23 26 35 37 75 135 137 155 219
2020-02-18 21:00 3.16 189 247 (2019) 23 (1977) 87 23 26 35 37 75 135 137 155 219
2020-02-18 20:00 3.17 190 247 (2019) 23 (1977) 87 23 26 35 37 75 135 137 155 219
2020-02-18 19:00 3.18 192 247 (2019) 23 (1977) 87 23 26 35 37 75 135 137 155 219
2020-02-18 18:00 3.18 192 247 (2019) 23 (1977) 87 23 26 35 37 75 135 137 155 219
2020-02-18 17:00 3.19 194 247 (2019) 23 (1977) 87 23 26 35 37 75 135 137 155 219
2020-02-18 16:00 3.20 196 247 (2019) 23 (1977) 87 23 26 35 37 75 135 137 155 219
2020-02-18 15:00 3.20 196 247 (2019) 23 (1977) 87 23 26 35 37 75 135 137 155 219
2020-02-18 14:00 3.21 197 247 (2019) 23 (1977) 87 23 26 35 37 75 135 137 155 219
2020-02-18 13:00 3.21 197 247 (2019) 23 (1977) 87 23 26 35 37 75 135 137 155 219
2020-02-18 12:00 3.22 199 247 (2019) 23 (1977) 87 23 26 35 37 75 135 137 155 219
2020-02-18 11:00 3.23 197 247 (2019) 23 (1977) 87 23 26 35 37 75 135 137 155 219
2020-02-18 10:00 3.23 197 247 (2019) 23 (1977) 87 23 26 35 37 75 135 137 155 219
2020-02-18 09:00 3.24 199 247 (2019) 23 (1977) 87 23 26 35 37 75 135 137 155 219
2020-02-18 08:00 3.24 199 247 (2019) 23 (1977) 87 23 26 35 37 75 135 137 155 219
2020-02-18 07:00 3.25 201 247 (2019) 23 (1977) 87 23 26 35 37 75 135 137 155 219
2020-02-18 06:00 3.26 203 247 (2019) 23 (1977) 87 23 26 35 37 75 135 137 155 219
2020-02-18 05:00 3.26 203 247 (2019) 23 (1977) 87 23 26 35 37 75 135 137 155 219
2020-02-18 04:00 3.27 205 247 (2019) 23 (1977) 87 23 26 35 37 75 135 137 155 219
2020-02-18 03:00 3.28 206 247 (2019) 23 (1977) 87 23 26 35 37 75 135 137 155 219
2020-02-18 02:00 3.28 206 247 (2019) 23 (1977) 87 23 26 35 37 75 135 137 155 219
2020-02-18 01:00 3.29 208 247 (2019) 23 (1977) 87 23 26 35 37 75 135 137 155 219
2020-02-18 00:00 3.29 208 247 (2019) 23 (1977) 87 23 26 35 37 75 135 137 155 219

A total of 183 rows are displayed for years 1966 through 2019.